Time;durP1;ratioP1;P1;durP2;ratioP2;P2;SDS_P1;SDS_P2;PMS_P1;PMS_P2;Temp;Humidity;BMP_temperature;BMP_pressure;BME280_temperature;BME280_humidity;BME280_pressure;Samples;Min_cycle;Max_cycle;Signal;HPM_P1;HPM_P2
2023/10/07 00:01:24;;;;;;;11.33;6.80;;;;;;;9.31;100.00;99013.47;5075540;28;20700;-79
2023/10/07 00:03:53;;;;;;;11.50;6.60;;;;;;;9.26;100.00;99015.50;5075791;28;20316;-79
2023/10/07 00:06:27;;;;;;;11.07;6.37;;;;;;;9.26;100.00;99019.00;5076404;28;20199;-79
2023/10/07 00:08:54;;;;;;;12.37;6.40;;;;;;;9.26;100.00;99011.09;5075991;28;20238;-79
2023/10/07 00:11:22;;;;;;;11.53;6.67;;;;;;;9.28;100.00;99008.34;5075648;28;20242;-78
2023/10/07 00:13:51;;;;;;;11.07;6.83;;;;;;;9.26;100.00;99008.44;5075657;28;20208;-79
2023/10/07 00:16:18;;;;;;;9.67;6.33;;;;;;;9.24;100.00;99009.44;5075359;28;20204;-79
2023/10/07 00:18:45;;;;;;;10.53;6.40;;;;;;;9.25;100.00;99016.44;5075697;28;20230;-79
2023/10/07 00:21:24;;;;;;;10.27;6.10;;;;;;;9.23;100.00;99008.59;5075960;28;20266;-79
2023/10/07 00:23:52;;;;;;;10.80;6.50;;;;;;;9.19;100.00;99001.75;5075365;28;20574;-79
2023/10/07 00:26:19;;;;;;;12.53;6.83;;;;;;;9.16;100.00;99001.03;5075423;28;20212;-79
2023/10/07 00:28:54;;;;;;;12.10;6.83;;;;;;;9.17;100.00;99002.78;5075906;28;20204;-79
2023/10/07 00:31:23;;;;;;;10.63;6.73;;;;;;;9.16;100.00;99008.94;5075432;28;20227;-79
2023/10/07 00:34:02;;;;;;;8.37;6.07;;;;;;;9.11;100.00;99000.44;5075289;28;20211;-79
2023/10/07 00:36:41;;;;;;;12.30;7.20;;;;;;;9.11;100.00;99003.09;5075612;28;20229;-79
2023/10/07 00:39:09;;;;;;;11.30;6.93;;;;;;;9.08;100.00;98997.94;5074776;28;20656;-79
2023/10/07 00:41:39;;;;;;;12.17;6.70;;;;;;;9.14;100.00;99003.78;5074944;28;20251;-79
2023/10/07 00:44:17;;;;;;;10.53;6.93;;;;;;;9.07;100.00;99002.34;5075744;28;20207;-79
2023/10/07 00:46:45;;;;;;;13.97;7.43;;;;;;;9.12;100.00;99002.97;5075414;28;20209;-79
2023/10/07 00:49:21;;;;;;;12.47;6.93;;;;;;;9.04;100.00;99001.66;5075468;28;20203;-79
2023/10/07 00:51:52;;;;;;;11.43;6.70;;;;;;;8.99;100.00;98993.13;5074590;28;20288;-78
2023/10/07 00:54:30;;;;;;;10.77;6.70;;;;;;;9.02;100.00;98993.84;5075491;28;20234;-79
2023/10/07 00:57:07;;;;;;;10.83;6.83;;;;;;;9.02;100.00;98982.41;5075239;28;20210;-79
2023/10/07 00:59:35;;;;;;;12.33;6.80;;;;;;;9.00;100.00;98984.28;5075364;28;20231;-79
2023/10/07 01:02:06;;;;;;;11.73;6.50;;;;;;;9.02;100.00;98982.41;5074944;28;20306;-79
2023/10/07 01:04:40;;;;;;;11.43;6.20;;;;;;;9.02;100.00;98977.16;5075076;28;20522;-79
2023/10/07 01:07:13;;;;;;;10.37;6.47;;;;;;;8.97;100.00;98973.88;5075149;28;20321;-79
2023/10/07 01:09:40;;;;;;;10.67;6.53;;;;;;;8.97;100.00;98973.88;5074760;28;20202;-79
2023/10/07 01:12:08;;;;;;;11.60;6.60;;;;;;;8.94;100.00;98972.25;5074360;28;20256;-79
2023/10/07 01:14:35;;;;;;;10.90;6.30;;;;;;;8.91;100.00;98964.50;5074215;28;20211;-78
2023/10/07 01:17:03;;;;;;;10.40;6.37;;;;;;;8.90;100.00;98961.94;5074237;28;20677;-79
2023/10/07 01:19:29;;;;;;;12.03;6.90;;;;;;;8.86;100.00;98963.00;5056155;28;20305;-79
2023/10/07 01:22:08;;;;;;;10.93;6.47;;;;;;;8.87;100.00;98959.47;5073947;28;20311;-79
2023/10/07 01:24:49;;;;;;;12.23;6.33;;;;;;;8.79;100.00;98958.97;5074596;28;20279;-79
2023/10/07 01:27:21;;;;;;;11.17;6.83;;;;;;;8.84;100.00;98954.34;5074397;28;20253;-79
2023/10/07 01:29:49;;;;;;;10.90;6.30;;;;;;;8.83;100.00;98947.34;5074513;28;20214;-79
2023/10/07 01:32:17;;;;;;;10.33;6.23;;;;;;;8.78;100.00;98944.09;5074245;28;20231;-80
2023/10/07 01:34:48;;;;;;;9.93;6.10;;;;;;;8.78;100.00;98949.34;5074121;28;20211;-79
2023/10/07 01:37:15;;;;;;;11.30;7.10;;;;;;;8.75;100.00;98944.25;5074839;28;20207;-79
2023/10/07 01:39:43;;;;;;;11.40;5.93;;;;;;;8.75;100.00;98941.63;5073647;28;20594;-79
2023/10/07 01:42:14;;;;;;;9.20;5.80;;;;;;;8.79;100.00;98938.75;5073712;28;20259;-79
2023/10/07 01:44:41;;;;;;;12.07;6.60;;;;;;;8.71;100.00;98940.06;5074004;28;20219;-79
2023/10/07 01:47:17;;;;;;;9.17;6.30;;;;;;;8.69;100.00;98932.22;5073814;28;20203;-78
2023/10/07 01:49:44;;;;;;;10.23;6.43;;;;;;;8.65;100.00;98937.72;5073837;28;20203;-79
2023/10/07 01:52:11;;;;;;;10.37;6.20;;;;;;;8.62;100.00;98940.50;5072778;28;20226;-79
2023/10/07 01:54:37;;;;;;;10.60;5.73;;;;;;;8.57;100.00;98947.78;5073657;28;20238;-79
2023/10/07 01:57:07;;;;;;;10.80;7.00;;;;;;;8.51;100.00;98954.19;5073946;28;20215;-79
2023/10/07 01:59:36;;;;;;;7.97;5.77;;;;;;;8.53;100.00;98951.47;5073825;28;20281;-79
2023/10/07 02:02:06;;;;;;;9.60;5.90;;;;;;;8.51;100.00;98953.34;5073297;28;20259;-78
2023/10/07 02:04:32;;;;;;;12.37;6.40;;;;;;;8.51;100.00;98954.19;5073755;28;20581;-79
2023/10/07 02:06:59;;;;;;;9.73;6.30;;;;;;;8.42;100.00;98959.03;5074086;28;20203;-78
2023/10/07 02:09:27;;;;;;;10.97;6.30;;;;;;;8.34;100.00;98955.91;5073718;28;20203;-79
2023/10/07 02:11:54;;;;;;;13.67;6.63;;;;;;;8.29;100.00;98963.19;5073373;28;20227;-79
2023/10/07 02:14:25;;;;;;;11.50;6.67;;;;;;;8.23;100.00;98956.44;5073475;28;20215;-78
2023/10/07 02:16:52;;;;;;;11.13;6.47;;;;;;;8.21;100.00;98946.91;5073187;28;20300;-78
2023/10/07 02:19:28;;;;;;;10.53;6.57;;;;;;;8.16;100.00;98956.75;5072871;28;20230;-79
2023/10/07 02:21:59;;;;;;;9.87;6.30;;;;;;;8.13;100.00;98959.50;5073028;28;20235;-79
2023/10/07 02:24:29;;;;;;;12.30;6.53;;;;;;;8.15;100.00;98965.56;5073208;28;20207;-79
2023/10/07 02:26:59;;;;;;;10.17;6.67;;;;;;;8.10;100.00;98967.56;5073398;28;20280;-79
2023/10/07 02:29:28;;;;;;;11.57;7.17;;;;;;;8.07;100.00;98962.41;5073197;28;20620;-78
2023/10/07 02:32:05;;;;;;;11.93;7.40;;;;;;;8.07;100.00;98971.19;5072587;28;20321;-78
2023/10/07 02:34:33;;;;;;;12.50;6.30;;;;;;;8.08;100.00;98978.16;5073332;28;20203;-79
2023/10/07 02:37:11;;;;;;;10.50;6.73;;;;;;;8.08;100.00;98982.59;5072883;28;20306;-79
2023/10/07 02:39:45;;;;;;;13.03;6.37;;;;;;;8.06;100.00;98981.78;5072662;28;20298;-79
2023/10/07 02:42:12;;;;;;;12.60;7.93;;;;;;;8.04;100.00;98970.47;5072709;28;20600;-78
2023/10/07 02:44:41;;;;;;;14.83;7.63;;;;;;;8.09;100.00;98976.41;5072873;28;20695;-79
2023/10/07 02:47:11;;;;;;;11.97;6.60;;;;;;;8.07;100.00;98984.34;5072573;28;20242;-78
2023/10/07 02:49:39;;;;;;;14.57;7.10;;;;;;;8.08;100.00;98985.22;5072591;28;20203;-79
2023/10/07 02:52:06;;;;;;;12.50;7.50;;;;;;;8.09;100.00;98977.22;5072508;28;20230;-79
2023/10/07 02:54:33;;;;;;;12.63;7.43;;;;;;;8.07;100.00;98988.75;5072123;28;20211;-79
2023/10/07 02:57:07;;;;;;;13.37;7.13;;;;;;;8.10;100.00;98980.72;5072451;28;20210;-78
2023/10/07 02:59:36;;;;;;;12.03;6.70;;;;;;;8.04;100.00;98979.25;5072539;28;20322;-78
2023/10/07 03:02:18;;;;;;;12.10;7.07;;;;;;;8.07;100.00;98972.97;5071949;28;20234;-78
2023/10/07 03:04:58;;;;;;;11.23;6.93;;;;;;;8.10;100.00;98980.72;5071884;28;20222;-77
2023/10/07 03:07:26;;;;;;;13.50;7.20;;;;;;;8.07;100.00;98976.47;5071933;28;20198;-78
2023/10/07 03:09:54;;;;;;;12.63;6.50;;;;;;;8.03;100.00;98971.41;5071692;28;20586;-80
2023/10/07 03:12:27;;;;;;;8.20;5.90;;;;;;;7.98;100.00;98971.63;5071224;28;20238;-78
2023/10/07 03:14:56;;;;;;;11.13;6.37;;;;;;;7.92;100.00;98971.91;5071283;28;20259;-77
2023/10/07 03:17:33;;;;;;;12.03;7.07;;;;;;;7.88;100.00;98977.34;5071378;28;20202;-78
2023/10/07 03:20:23;;;;;;;11.27;6.90;;;;;;;7.89;100.00;98964.13;5071189;28;20650;-78
2023/10/07 03:25:34;;;;;;;11.00;6.53;;;;;;;7.88;100.00;98986.13;5070958;28;20581;-78
2023/10/07 03:28:07;;;;;;;12.60;6.90;;;;;;;7.86;100.00;98987.09;5071403;28;20200;-78
2023/10/07 03:30:36;;;;;;;10.07;6.67;;;;;;;7.87;100.00;98986.19;5071276;28;20233;-80
2023/10/07 03:33:08;;;;;;;11.60;6.93;;;;;;;7.88;100.00;98977.34;5071300;28;20207;-77
2023/10/07 03:35:46;;;;;;;12.03;6.13;;;;;;;7.80;100.00;98980.34;5072027;28;20221;-78
2023/10/07 03:38:12;;;;;;;12.83;6.80;;;;;;;7.79;100.00;98994.41;5071269;28;20214;-80
2023/10/07 03:40:39;;;;;;;12.57;6.83;;;;;;;7.78;100.00;98997.13;5071514;28;20223;-79
2023/10/07 03:43:08;;;;;;;11.40;6.97;;;;;;;7.79;100.00;99002.28;5071814;28;20229;-79
2023/10/07 03:45:39;;;;;;;11.57;7.17;;;;;;;7.84;100.00;99007.38;5071823;28;20646;-79
2023/10/07 03:48:22;;;;;;;11.97;6.70;;;;;;;7.81;100.00;99012.75;5071913;28;20218;-78
2023/10/07 03:50:59;;;;;;;12.03;6.53;;;;;;;7.78;100.00;99015.56;5072021;28;20231;-79
2023/10/07 03:53:31;;;;;;;11.90;6.47;;;;;;;7.83;100.00;99018.84;5071597;28;20269;-78
2023/10/07 03:55:59;;;;;;;14.13;6.77;;;;;;;7.85;100.00;99015.19;5071805;28;20298;-79
2023/10/07 03:58:27;;;;;;;11.63;6.50;;;;;;;7.79;100.00;99023.34;5071711;28;20215;-80
2023/10/07 04:00:54;;;;;;;11.70;6.40;;;;;;;7.77;100.00;99016.47;5071213;28;20233;-80
2023/10/07 04:03:24;;;;;;;9.83;6.17;;;;;;;7.68;100.00;99022.13;5071111;28;20304;-78
2023/10/07 04:05:51;;;;;;;10.77;6.27;;;;;;;7.65;100.00;99015.22;5072133;28;20203;-79
2023/10/07 04:08:18;;;;;;;9.47;6.20;;;;;;;7.66;100.00;99026.59;5071584;28;20208;-78
2023/10/07 04:10:45;;;;;;;10.47;6.27;;;;;;;7.66;100.00;99016.09;5071558;28;20203;-80
2023/10/07 04:13:21;;;;;;;9.80;6.20;;;;;;;7.63;100.00;99024.09;5071387;28;20210;-78
2023/10/07 04:15:51;;;;;;;11.47;6.03;;;;;;;7.65;100.00;99030.16;5075854;28;20210;-78
2023/10/07 04:18:22;;;;;;;10.43;6.10;;;;;;;7.67;100.00;99023.06;5075656;28;20603;-78
2023/10/07 04:20:58;;;;;;;9.37;6.03;;;;;;;7.63;100.00;99029.34;5057193;28;20725;-78
2023/10/07 04:23:25;;;;;;;12.60;6.63;;;;;;;7.63;100.00;99029.34;5075322;28;20244;-78
2023/10/07 04:25:55;;;;;;;9.67;6.67;;;;;;;7.57;100.00;99021.72;5075158;28;20210;-78
2023/10/07 04:28:25;;;;;;;11.80;6.83;;;;;;;7.58;100.00;99015.53;5075703;28;20207;-80
2023/10/07 04:30:53;;;;;;;11.63;7.00;;;;;;;7.59;100.00;99006.75;5074044;28;20258;-79
2023/10/07 04:33:25;;;;;;;12.63;7.47;;;;;;;7.70;100.00;99015.00;5073952;28;20210;-80
2023/10/07 04:35:59;;;;;;;11.53;6.97;;;;;;;7.71;100.00;99011.47;5074392;28;20246;-80
2023/10/07 04:38:39;;;;;;;10.23;6.33;;;;;;;7.71;100.00;99006.22;5075125;28;20221;-78
2023/10/07 04:43:54;;;;;;;12.13;6.63;;;;;;;7.57;100.00;99014.72;5075669;28;20226;-78
2023/10/07 04:46:23;;;;;;;8.93;5.43;;;;;;;7.48;100.00;99019.50;5075370;28;20214;-78
2023/10/07 04:48:56;;;;;;;8.30;5.60;;;;;;;7.50;100.00;99033.44;5075135;28;20309;-79
2023/10/07 04:51:46;;;;;;;10.50;5.87;;;;;;;7.41;100.00;99031.22;5074732;28;20224;-78
2023/10/07 04:54:11;;;;;;;8.83;5.47;;;;;;;7.41;100.00;99018.06;5074346;28;20218;-78
2023/10/07 04:56:39;;;;;;;9.47;5.73;;;;;;;7.39;100.00;99017.25;5075083;28;20264;-78
2023/10/07 04:59:06;;;;;;;11.40;6.03;;;;;;;7.38;100.00;99007.66;5075075;28;20237;-79
2023/10/07 05:01:33;;;;;;;11.43;5.93;;;;;;;7.41;100.00;99010.19;5074927;28;20237;-79
2023/10/07 05:04:04;;;;;;;11.47;6.70;;;;;;;7.46;100.00;99013.44;5074650;28;20351;-79
2023/10/07 05:06:34;;;;;;;9.80;6.70;;;;;;;7.41;100.00;99007.53;5074685;28;20238;-79
2023/10/07 05:09:03;;;;;;;10.67;5.77;;;;;;;7.47;100.00;99007.28;5073944;28;20254;-79
2023/10/07 05:11:29;;;;;;;8.63;5.77;;;;;;;7.40;100.00;98997.91;5073254;28;20219;-79
2023/10/07 05:13:55;;;;;;;9.03;5.37;;;;;;;7.39;100.00;98999.72;5073636;28;20261;-79
2023/10/07 05:16:22;;;;;;;9.70;5.83;;;;;;;7.42;100.00;99004.00;5073429;28;20647;-79
2023/10/07 05:18:49;;;;;;;8.97;5.63;;;;;;;7.39;100.00;99010.22;5073494;28;20278;-79
2023/10/07 05:21:19;;;;;;;9.23;5.60;;;;;;;7.36;100.00;99014.78;5073038;28;20228;-79
2023/10/07 05:23:47;;;;;;;10.97;5.80;;;;;;;7.37;100.00;99016.47;5073145;28;20329;-79
2023/10/07 05:26:17;;;;;;;10.23;5.90;;;;;;;7.39;100.00;99019.88;5073085;28;20208;-79
2023/10/07 05:28:44;;;;;;;8.43;5.60;;;;;;;7.36;100.00;99006.88;5073030;28;20206;-79
2023/10/07 05:31:14;;;;;;;15.57;6.30;;;;;;;7.36;100.00;99017.41;5073365;28;20304;-79
2023/10/07 05:33:43;;;;;;;9.40;5.57;;;;;;;7.38;100.00;99019.03;5055496;28;20305;-79
2023/10/07 05:36:13;;;;;;;9.87;5.53;;;;;;;7.44;100.00;99028.44;5073081;28;20584;-79
2023/10/07 05:38:40;;;;;;;9.37;5.80;;;;;;;7.45;100.00;99040.66;5072918;28;20244;-79
2023/10/07 05:41:12;;;;;;;10.87;5.60;;;;;;;7.47;100.00;99028.31;5072461;28;20235;-79
2023/10/07 05:43:39;;;;;;;9.17;5.43;;;;;;;7.46;100.00;99032.72;5072536;28;20203;-79
2023/10/07 05:46:05;;;;;;;8.17;4.97;;;;;;;7.49;100.00;99032.59;5073400;28;20222;-79
2023/10/07 05:48:32;;;;;;;7.53;4.83;;;;;;;7.47;100.00;99036.22;5056448;28;20218;-79
2023/10/07 05:50:59;;;;;;;9.87;5.43;;;;;;;7.46;100.00;99031.84;5072956;28;20732;-79
2023/10/07 05:53:25;;;;;;;7.13;4.80;;;;;;;7.47;100.00;99033.59;5072552;28;20223;-79
2023/10/07 05:55:53;;;;;;;8.30;5.07;;;;;;;7.49;100.00;99026.47;5072834;28;20217;-79
2023/10/07 05:58:23;;;;;;;9.00;5.40;;;;;;;7.55;100.00;99034.97;5072515;28;20218;-79
2023/10/07 06:00:50;;;;;;;8.20;5.43;;;;;;;7.64;100.00;99025.78;5072695;28;20321;-79
2023/10/07 06:03:16;;;;;;;7.43;5.33;;;;;;;7.69;100.00;99013.31;5072434;28;20221;-79
2023/10/07 06:05:43;;;;;;;10.13;5.17;;;;;;;7.75;100.00;99018.28;5072227;28;20676;-80
2023/10/07 06:08:10;;;;;;;8.90;5.60;;;;;;;7.86;100.00;99027.44;5072218;28;20243;-78
2023/10/07 06:10:38;;;;;;;8.90;5.10;;;;;;;7.98;100.00;99026.91;5072149;28;20237;-78
2023/10/07 06:13:08;;;;;;;9.90;5.40;;;;;;;8.14;100.00;99037.59;5072573;28;20207;-79
2023/10/07 06:15:37;;;;;;;7.43;5.33;;;;;;;8.22;100.00;99036.38;5072594;28;20211;-78
2023/10/07 06:18:04;;;;;;;7.90;5.27;;;;;;;8.30;100.00;99043.91;5073010;28;20364;-78
2023/10/07 06:20:37;;;;;;;9.63;5.73;;;;;;;8.43;100.00;99039.75;5072583;28;20326;-78
2023/10/07 06:23:13;;;;;;;8.37;4.80;;;;;;;8.43;100.00;99026.59;5071588;28;20211;-78
2023/10/07 06:25:41;;;;;;;8.53;5.23;;;;;;;8.47;100.00;99030.81;5072193;28;20203;-78
2023/10/07 06:28:10;;;;;;;9.53;5.13;;;;;;;8.53;100.00;99028.75;5072460;28;20203;-78
2023/10/07 06:30:42;;;;;;;8.40;5.27;;;;;;;8.61;100.00;99023.97;5072827;28;20690;-79
2023/10/07 06:33:12;;;;;;;9.30;5.47;;;;;;;8.62;100.00;99007.22;5071974;28;20213;-79
2023/10/07 06:35:38;;;;;;;9.40;5.60;;;;;;;8.64;100.00;99029.06;5072511;28;20671;-80
2023/10/07 06:38:05;;;;;;;8.80;4.73;;;;;;;8.67;100.00;99030.72;5071980;28;20210;-78
2023/10/07 06:40:35;;;;;;;8.37;5.23;;;;;;;8.72;100.00;99034.00;5071973;28;20633;-79
2023/10/07 06:43:02;;;;;;;8.57;5.23;;;;;;;8.86;100.00;99044.72;5071228;28;20211;-79
2023/10/07 06:45:35;;;;;;;9.17;5.27;;;;;;;8.96;100.00;99048.63;5071124;28;20203;-79
2023/10/07 06:48:06;;;;;;;9.27;5.27;;;;;;;9.10;100.00;99056.72;5072105;28;20222;-79
2023/10/07 06:50:33;;;;;;;9.03;5.03;;;;;;;9.33;100.00;99056.47;5072244;28;20237;-79
2023/10/07 06:53:00;;;;;;;8.80;5.17;;;;;;;9.55;100.00;99072.94;5071325;28;20218;-83
2023/10/07 06:55:28;;;;;;;6.13;4.60;;;;;;;9.83;100.00;99067.94;5072288;28;20223;-78
2023/10/07 06:57:56;;;;;;;7.33;4.83;;;;;;;10.05;100.00;99063.31;5071941;28;20205;-78
2023/10/07 07:00:24;;;;;;;8.93;4.83;;;;;;;10.28;100.00;99074.34;5072327;28;20227;-77
2023/10/07 07:02:57;;;;;;;9.17;5.13;;;;;;;10.46;100.00;99075.19;5071969;28;20860;-80
2023/10/07 07:05:27;;;;;;;6.73;4.70;;;;;;;10.63;100.00;99067.16;5064504;28;20200;-80
2023/10/07 07:07:54;;;;;;;8.10;4.60;;;;;;;10.79;100.00;99086.56;5052149;28;20579;-79
2023/10/07 07:10:28;;;;;;;9.83;4.53;;;;;;;10.91;100.00;99083.25;5052307;28;20201;-79
2023/10/07 07:12:59;;;;;;;7.00;4.80;;;;;;;11.00;100.00;99082.75;5052080;28;20276;-79
2023/10/07 07:15:28;;;;;;;8.60;5.50;;;;;;;11.08;100.00;99075.22;5052442;28;20213;-80
2023/10/07 07:18:05;;;;;;;8.87;4.60;;;;;;;11.27;100.00;99083.81;5052352;28;20587;-79
2023/10/07 07:20:48;;;;;;;6.87;4.60;;;;;;;11.44;100.00;99083.72;5052136;28;20227;-80
2023/10/07 07:23:16;;;;;;;7.87;5.03;;;;;;;11.67;100.00;99076.16;5051993;28;20238;-80
2023/10/07 07:25:50;;;;;;;9.07;5.00;;;;;;;11.86;100.00;99070.66;5052374;28;20210;-79
2023/10/07 07:28:17;;;;;;;10.17;4.90;;;;;;;11.96;100.00;99069.13;5052797;28;20211;-81
2023/10/07 07:30:45;;;;;;;8.60;5.00;;;;;;;12.04;100.00;99065.06;5053011;28;20298;-80
2023/10/07 07:33:13;;;;;;;6.53;4.60;;;;;;;12.01;100.00;99064.41;5052112;28;20212;-79
2023/10/07 07:35:43;;;;;;;6.70;4.20;;;;;;;11.93;100.00;99066.69;5052461;28;20226;-80
2023/10/07 07:38:20;;;;;;;6.47;4.60;;;;;;;11.89;100.00;99071.31;5052442;28;20212;-80
2023/10/07 07:40:49;;;;;;;6.80;4.33;;;;;;;11.88;100.00;99069.63;5052471;28;20318;-80
2023/10/07 07:43:19;;;;;;;7.00;4.70;;;;;;;11.96;100.00;99071.78;5050720;28;20832;-79
2023/10/07 07:45:46;;;;;;;6.40;4.13;;;;;;;11.97;100.00;99062.88;5051361;28;20212;-80
2023/10/07 07:48:14;;;;;;;8.10;4.80;;;;;;;12.00;100.00;99068.00;5051446;28;20289;-79
2023/10/07 07:50:42;;;;;;;8.00;4.90;;;;;;;12.09;100.00;99070.09;5055084;28;20212;-79
2023/10/07 07:53:12;;;;;;;7.13;4.60;;;;;;;12.16;100.00;99059.03;5036556;28;20254;-80
2023/10/07 07:55:43;;;;;;;6.80;4.10;;;;;;;12.28;100.00;99046.84;5055836;28;20209;-79
2023/10/07 07:58:10;;;;;;;7.60;4.03;;;;;;;12.41;100.00;99042.50;5055466;28;20645;-80
2023/10/07 08:00:41;;;;;;;7.13;4.27;;;;;;;12.64;100.00;99044.53;5054749;28;20263;-80
2023/10/07 08:03:09;;;;;;;9.33;4.63;;;;;;;12.97;100.00;99047.75;5054567;28;20664;-79
2023/10/07 08:05:36;;;;;;;7.43;4.40;;;;;;;13.29;98.61;99043.84;5054397;28;20748;-79
2023/10/07 08:08:18;;;;;;;8.07;4.37;;;;;;;13.64;96.24;99047.66;5055036;28;20253;-79
2023/10/07 08:10:48;;;;;;;14.60;8.23;;;;;;;13.94;94.07;99041.13;5055065;28;20206;-79
2023/10/07 08:13:23;;;;;;;9.50;5.47;;;;;;;14.16;91.72;99032.50;5036606;28;20211;-80
2023/10/07 08:15:50;;;;;;;8.03;5.00;;;;;;;14.31;90.82;99044.78;5055092;28;20222;-80
2023/10/07 08:18:22;;;;;;;7.07;4.37;;;;;;;14.40;90.97;99052.97;5054742;28;20214;-80
2023/10/07 08:20:56;;;;;;;6.70;4.07;;;;;;;14.51;88.09;99050.44;5055057;28;20267;-80
2023/10/07 08:23:28;;;;;;;5.80;3.60;;;;;;;14.59;86.91;99041.88;5054249;28;20657;-80
2023/10/07 08:25:58;;;;;;;6.57;3.60;;;;;;;14.65;87.15;99042.31;5054792;28;20271;-80
2023/10/07 08:28:41;;;;;;;5.33;3.83;;;;;;;14.65;86.74;99029.00;5055513;28;20208;-80
2023/10/07 08:31:13;;;;;;;6.83;3.73;;;;;;;14.68;87.28;99046.56;5055297;28;20231;-80
2023/10/07 08:33:40;;;;;;;5.90;3.70;;;;;;;14.77;87.36;99051.22;5055733;28;20600;-83
2023/10/07 08:36:07;;;;;;;7.53;3.80;;;;;;;14.93;82.50;99025.19;5056178;28;20212;-80
2023/10/07 08:38:43;;;;;;;7.60;4.40;;;;;;;15.18;77.32;99009.13;5058342;28;20212;-81
2023/10/07 08:41:15;;;;;;;6.43;3.70;;;;;;;15.53;78.23;99015.38;5054410;28;20231;-77
2023/10/07 08:43:44;;;;;;;5.93;3.40;;;;;;;15.73;77.10;99012.06;5054266;28;20192;-77
2023/10/07 08:46:14;;;;;;;6.10;3.63;;;;;;;15.82;77.19;99011.38;5054164;28;20208;-77
2023/10/07 08:48:44;;;;;;;4.53;3.40;;;;;;;15.94;78.30;99018.44;5053851;28;20314;-77
2023/10/07 08:51:14;;;;;;;6.03;3.97;;;;;;;16.02;77.63;99024.84;5054308;28;20232;-77
2023/10/07 08:53:42;;;;;;;6.37;3.60;;;;;;;16.09;77.41;99031.44;5054368;28;20319;-77
2023/10/07 08:56:10;;;;;;;5.33;3.43;;;;;;;16.09;76.33;99010.94;5053965;28;20204;-77
2023/10/07 08:58:39;;;;;;;7.03;4.10;;;;;;;16.09;72.57;99005.59;5054009;28;20727;-77
2023/10/07 09:01:07;;;;;;;5.33;3.63;;;;;;;16.13;73.62;99000.03;5053610;28;20280;-78
2023/10/07 09:03:38;;;;;;;5.80;3.50;;;;;;;16.14;74.04;98998.09;5053385;28;20212;-77
2023/10/07 09:06:07;;;;;;;5.90;3.67;;;;;;;16.17;75.03;99003.19;5054103;28;20295;-76
2023/10/07 09:08:33;;;;;;;5.40;3.80;;;;;;;16.20;75.91;99000.28;5053773;28;20696;-77
2023/10/07 09:11:06;;;;;;;5.93;3.53;;;;;;;16.23;76.66;99008.06;5053618;28;20250;-77
2023/10/07 09:13:33;;;;;;;5.70;3.60;;;;;;;16.27;76.76;99009.50;5053274;28;20231;-77
2023/10/07 09:16:00;;;;;;;6.30;3.77;;;;;;;16.34;74.94;99009.88;5053598;28;20208;-77
2023/10/07 09:18:31;;;;;;;5.77;3.70;;;;;;;16.37;72.55;98996.28;5053757;28;20220;-77
2023/10/07 09:20:58;;;;;;;5.33;3.43;;;;;;;16.48;73.01;99013.19;5053478;28;20659;-77
2023/10/07 09:23:35;;;;;;;5.77;3.77;;;;;;;16.59;73.72;99004.31;5052773;28;20325;-77
2023/10/07 09:26:21;;;;;;;6.27;3.87;;;;;;;16.66;72.67;99001.06;5053597;28;20211;-77
2023/10/07 09:28:51;;;;;;;7.67;3.93;;;;;;;16.73;72.90;99004.94;5054158;28;20333;-77
2023/10/07 09:31:19;;;;;;;5.23;3.50;;;;;;;16.80;73.75;99014.13;5052919;28;20228;-76
2023/10/07 09:33:49;;;;;;;5.73;3.40;;;;;;;16.85;74.08;99019.97;5053351;28;20208;-75
2023/10/07 09:36:33;;;;;;;7.00;3.67;;;;;;;16.91;73.10;99016.78;5053705;28;20208;-76
2023/10/07 09:39:16;;;;;;;6.67;3.77;;;;;;;16.98;73.16;99023.34;5054705;28;20212;-77
2023/10/07 09:41:44;;;;;;;5.07;3.63;;;;;;;17.00;73.64;99021.38;5053703;28;20247;-79
2023/10/07 09:44:23;;;;;;;5.57;3.67;;;;;;;17.00;73.90;99025.88;5053543;28;20211;-79
2023/10/07 09:46:52;;;;;;;4.93;3.10;;;;;;;17.02;73.59;99029.28;5053060;28;20212;-80
2023/10/07 09:49:19;;;;;;;5.33;3.47;;;;;;;17.00;72.83;99021.38;5052650;28;20258;-80
2023/10/07 09:51:49;;;;;;;5.43;3.37;;;;;;;17.04;73.00;99022.84;5052382;28;20228;-80
2023/10/07 09:54:29;;;;;;;5.87;3.67;;;;;;;17.08;72.56;99026.94;5052985;28;20192;-80
2023/10/07 09:57:24;;;;;;;5.57;3.63;;;;;;;17.18;72.78;99038.59;5052950;28;20211;-80
2023/10/07 10:00:32;;;;;;;5.33;3.43;;;;;;;17.29;72.54;99035.88;5052944;28;20212;-78
2023/10/07 10:03:12;;;;;;;5.23;3.70;;;;;;;17.42;71.75;99028.59;5053232;28;20231;-80
2023/10/07 10:05:57;;;;;;;6.77;3.53;;;;;;;17.54;72.25;99027.56;5053058;28;20218;-79
2023/10/07 10:08:56;;;;;;;6.27;3.50;;;;;;;17.61;69.40;99015.38;5053269;28;20200;-78
2023/10/07 10:11:31;;;;;;;5.77;3.67;;;;;;;17.69;68.84;99015.56;5051356;28;20228;-76
2023/10/07 10:16:45;;;;;;;4.97;3.43;;;;;;;17.86;64.26;99000.81;5052188;28;20208;-78
2023/10/07 10:19:22;;;;;;;6.43;3.30;;;;;;;17.94;63.95;98993.84;5052781;28;20266;-78
2023/10/07 10:21:50;;;;;;;5.67;2.83;;;;;;;18.07;62.76;98983.78;5051720;28;20231;-78
2023/10/07 10:24:18;;;;;;;5.33;2.80;;;;;;;18.11;58.47;98963.78;5052621;28;20212;-78
2023/10/07 10:26:45;;;;;;;3.50;2.40;;;;;;;18.26;58.10;98972.31;5052173;28;20204;-78
2023/10/07 10:29:20;;;;;;;4.77;2.43;;;;;;;18.35;58.19;98971.56;5052531;28;20568;-77
2023/10/07 10:31:51;;;;;;;4.00;2.40;;;;;;;18.41;56.92;98960.31;5051586;28;20705;-79
2023/10/07 10:34:20;;;;;;;4.53;2.53;;;;;;;18.43;57.41;98964.56;5052296;28;20208;-79
2023/10/07 10:36:49;;;;;;;2.60;1.73;;;;;;;18.47;56.61;98955.25;5052389;28;20801;-80
2023/10/07 10:39:22;;;;;;;3.83;1.87;;;;;;;18.55;56.90;98968.81;5052181;28;20269;-78
2023/10/07 10:41:49;;;;;;;3.20;1.80;;;;;;;18.59;56.23;98961.38;5051566;28;20231;-79
2023/10/07 10:44:19;;;;;;;3.67;2.13;;;;;;;18.70;56.40;98962.09;5052284;28;20204;-78
2023/10/07 10:46:47;;;;;;;2.67;1.80;;;;;;;18.87;57.13;98957.91;5052084;28;20208;-79
2023/10/07 10:49:16;;;;;;;3.03;1.80;;;;;;;18.99;56.18;98943.41;5051841;28;20222;-78
2023/10/07 10:51:48;;;;;;;3.03;1.83;;;;;;;19.11;56.14;98955.69;5051245;28;20691;-78
2023/10/07 10:54:15;;;;;;;4.30;2.17;;;;;;;19.15;56.18;98949.06;5051966;28;20303;-79
2023/10/07 10:56:49;;;;;;;3.70;2.20;;;;;;;19.24;56.00;98946.44;5051871;28;20542;-79
2023/10/07 10:59:16;;;;;;;3.50;2.27;;;;;;;19.17;54.15;98939.06;5052088;28;20204;-79
2023/10/07 11:01:45;;;;;;;3.67;2.33;;;;;;;19.16;54.50;98938.22;5051357;28;20236;-80
2023/10/07 11:04:13;;;;;;;4.00;1.97;;;;;;;19.17;55.65;98955.13;5052071;28;20218;-81
2023/10/07 11:06:40;;;;;;;4.50;2.10;;;;;;;19.21;54.76;98935.16;5052035;28;20263;-81
2023/10/07 11:09:09;;;;;;;3.07;1.90;;;;;;;19.22;56.52;98951.09;5052287;28;20212;-81
2023/10/07 11:11:37;;;;;;;3.40;1.90;;;;;;;19.18;55.59;98938.91;5051865;28;20234;-81
2023/10/07 11:14:09;;;;;;;3.70;2.50;;;;;;;19.25;55.77;98942.75;5034957;28;20231;-81
2023/10/07 11:16:46;;;;;;;3.70;2.27;;;;;;;19.29;55.64;98937.97;5052533;28;20208;-80
2023/10/07 11:19:12;;;;;;;3.80;2.20;;;;;;;19.35;56.28;98932.91;5034529;28;20211;-81
2023/10/07 11:21:44;;;;;;;3.07;2.10;;;;;;;19.41;56.11;98932.34;5050728;28;20238;-81
2023/10/07 11:24:14;;;;;;;3.10;2.10;;;;;;;19.39;55.43;98923.56;5057214;28;20207;-81
2023/10/07 11:26:42;;;;;;;4.83;2.70;;;;;;;19.31;55.05;98922.56;5059060;28;20314;-80
2023/10/07 11:29:13;;;;;;;4.93;2.80;;;;;;;19.31;55.82;98925.25;5058361;28;20265;-78
2023/10/07 11:31:41;;;;;;;4.10;2.27;;;;;;;19.22;56.79;98936.84;5058050;28;20255;-84
2023/10/07 11:34:10;;;;;;;4.87;2.37;;;;;;;19.32;57.55;98941.22;5058315;28;20211;-77
2023/10/07 11:36:44;;;;;;;4.77;2.60;;;;;;;19.25;57.37;98937.41;5059164;28;20211;-79
2023/10/07 11:39:13;;;;;;;4.10;2.60;;;;;;;19.20;57.08;98928.94;5058238;28;20207;-79
2023/10/07 11:41:40;;;;;;;3.67;2.13;;;;;;;19.23;57.11;98928.66;5057652;28;20288;-80
2023/10/07 11:44:09;;;;;;;3.40;2.30;;;;;;;19.30;57.56;98935.16;5058344;28;20234;-80
2023/10/07 11:46:36;;;;;;;3.47;1.90;;;;;;;19.39;58.10;98941.50;5058347;28;20215;-80
2023/10/07 11:49:03;;;;;;;3.30;2.17;;;;;;;19.45;58.29;98943.63;5058454;28;20211;-80
2023/10/07 11:51:32;;;;;;;3.43;2.10;;;;;;;19.54;56.97;98938.25;5057783;28;20629;-80
2023/10/07 11:54:00;;;;;;;4.27;2.40;;;;;;;19.60;56.83;98932.31;5058587;28;20212;-80